Time;durP1;ratioP1;P1;durP2;ratioP2;P2;SDS_P1;SDS_P2;PMS_P1;PMS_P2;Temp;Humidity;BMP_temperature;BMP_pressure;BME280_temperature;BME280_humidity;BME280_pressure;Samples;Min_cycle;Max_cycle;Signal;HPM_P1;HPM_P2
2023/05/29 00:01:18;;;;;;;4.90;3.75;;;;;;;15.42;100.00;64584.22;5050665;28;20671;-57
2023/05/29 00:03:45;;;;;;;9.18;4.18;;;;;;;15.43;100.00;64585.34;5050844;28;20215;-58
2023/05/29 00:06:10;;;;;;;5.55;4.22;;;;;;;15.29;100.00;64567.38;5050764;28;20271;-55
2023/05/29 00:08:36;;;;;;;6.50;4.00;;;;;;;15.32;100.00;64573.78;5050626;28;20274;-57
2023/05/29 00:11:08;;;;;;;6.38;4.35;;;;;;;15.22;100.00;64562.78;5050726;28;20606;-59
2023/05/29 00:13:33;;;;;;;6.13;4.15;;;;;;;15.24;100.00;64559.34;5050782;28;20225;-58
2023/05/29 00:16:00;;;;;;;5.63;4.07;;;;;;;15.34;100.00;64572.88;5050734;28;20530;-55
2023/05/29 00:18:26;;;;;;;5.03;3.45;;;;;;;15.35;100.00;64577.06;5050390;28;20733;-56
2023/05/29 00:20:52;;;;;;;6.43;4.30;;;;;;;15.39;100.00;64578.91;5050559;28;20178;-56
2023/05/29 00:23:18;;;;;;;8.23;4.40;;;;;;;15.42;100.00;64581.66;5050154;28;20216;-56
2023/05/29 00:25:43;;;;;;;6.80;4.35;;;;;;;15.34;100.00;64570.34;5050372;28;20213;-55
2023/05/29 00:28:09;;;;;;;8.65;4.15;;;;;;;15.40;100.00;64579.47;5050314;28;20213;-59
2023/05/29 00:30:35;;;;;;;7.45;4.00;;;;;;;15.41;100.00;64578.03;5050277;28;20232;-59
2023/05/29 00:33:00;;;;;;;5.28;4.18;;;;;;;15.30;100.00;64568.47;5052728;28;20636;-59
2023/05/29 00:35:26;;;;;;;6.32;3.90;;;;;;;15.28;100.00;64566.28;5053795;28;20683;-59
2023/05/29 00:37:51;;;;;;;11.43;4.72;;;;;;;15.25;100.00;64560.97;5053679;28;20276;-59
2023/05/29 00:40:17;;;;;;;7.20;4.38;;;;;;;15.20;100.00;64557.47;5053736;28;20331;-59
2023/05/29 00:42:42;;;;;;;8.00;4.65;;;;;;;14.93;100.00;64530.88;5053764;28;20200;-65
2023/05/29 00:45:08;;;;;;;7.55;3.92;;;;;;;14.84;100.00;64519.00;5053682;28;20213;-59
2023/05/29 00:47:34;;;;;;;8.23;4.40;;;;;;;14.75;100.00;64508.56;5053836;28;20675;-60
2023/05/29 00:50:00;;;;;;;4.70;3.75;;;;;;;14.74;100.00;64505.47;5053663;28;20209;-58
2023/05/29 00:52:26;;;;;;;5.97;4.40;;;;;;;14.92;100.00;64527.25;5053486;28;20597;-59
2023/05/29 00:54:52;;;;;;;6.55;4.03;;;;;;;14.79;100.00;64516.03;5053531;28;20209;-60
2023/05/29 00:57:18;;;;;;;8.85;4.28;;;;;;;14.71;100.00;64501.63;5053608;28;20635;-59
2023/05/29 00:59:45;;;;;;;7.22;4.63;;;;;;;14.57;100.00;64491.88;5053399;28;20225;-59
2023/05/29 01:02:12;;;;;;;6.57;4.30;;;;;;;14.58;100.00;64489.88;5053376;28;20231;-59
2023/05/29 01:04:38;;;;;;;7.70;4.97;;;;;;;14.67;100.00;64500.31;5052991;28;20217;-59
2023/05/29 01:07:04;;;;;;;5.70;4.65;;;;;;;14.73;100.00;64503.81;5053170;28;20277;-59
2023/05/29 01:09:31;;;;;;;9.02;5.30;;;;;;;14.65;100.00;64495.59;5053559;28;20337;-59
2023/05/29 01:12:23;;;;;;;5.82;4.18;;;;;;;14.63;100.00;64498.47;5052234;28;20269;-60
2023/05/29 01:15:04;;;;;;;6.95;4.55;;;;;;;14.73;100.00;64506.91;5053008;28;20221;-59
2023/05/29 01:18:08;;;;;;;7.35;4.53;;;;;;;14.94;100.00;64530.00;5053077;28;20188;-59
2023/05/29 01:20:52;;;;;;;6.07;4.40;;;;;;;14.91;100.00;64526.69;5015317;28;20205;-56
2023/05/29 01:23:48;;;;;;;8.23;4.35;;;;;;;14.87;100.00;64519.19;5053055;28;20316;-56
2023/05/29 01:26:25;;;;;;;5.78;4.60;;;;;;;14.76;100.00;64509.66;5053161;28;20193;-60
2023/05/29 01:28:53;;;;;;;5.88;4.43;;;;;;;15.02;100.00;64538.25;5052849;28;20766;-59
2023/05/29 01:31:23;;;;;;;6.40;4.20;;;;;;;14.99;100.00;64534.94;5052834;28;20181;-58
2023/05/29 01:33:56;;;;;;;9.05;4.68;;;;;;;14.81;100.00;64515.69;5053073;28;20637;-56
2023/05/29 01:36:23;;;;;;;6.10;4.70;;;;;;;14.82;100.00;64516.25;5052913;28;20173;-56
2023/05/29 01:38:50;;;;;;;5.80;4.15;;;;;;;14.65;100.00;64500.66;5052668;28;20679;-56
2023/05/29 01:41:16;;;;;;;8.05;4.53;;;;;;;14.71;100.00;64506.69;5052817;28;20197;-58
2023/05/29 01:43:46;;;;;;;12.60;4.90;;;;;;;14.83;100.00;64520.44;5051915;28;20767;-56
2023/05/29 01:46:15;;;;;;;5.13;4.53;;;;;;;14.69;100.00;64505.06;5052613;28;20193;-56
2023/05/29 01:48:45;;;;;;;8.95;4.93;;;;;;;14.67;100.00;64497.22;5052643;28;20209;-55
2023/05/29 01:51:12;;;;;;;8.35;4.63;;;;;;;14.54;100.00;64486.03;5052647;28;20181;-57
2023/05/29 01:53:41;;;;;;;6.70;4.78;;;;;;;14.49;100.00;64480.53;5052343;28;20282;-57
2023/05/29 01:56:07;;;;;;;10.13;5.13;;;;;;;14.23;100.00;64452.50;5052524;28;20182;-56
2023/05/29 01:58:35;;;;;;;6.88;4.35;;;;;;;14.15;100.00;64440.63;5052293;28;20692;-57
2023/05/29 02:01:01;;;;;;;9.80;4.80;;;;;;;14.22;100.00;64448.31;5052394;28;20182;-57
2023/05/29 02:03:30;;;;;;;6.97;4.22;;;;;;;14.32;100.00;64462.41;5052438;28;20701;-56
2023/05/29 02:05:57;;;;;;;6.88;4.30;;;;;;;14.29;100.00;64459.13;5052449;28;20220;-57
2023/05/29 02:08:22;;;;;;;6.15;4.60;;;;;;;14.22;100.00;64450.84;5051034;28;20719;-57
2023/05/29 02:10:48;;;;;;;7.65;4.43;;;;;;;14.19;100.00;64448.09;5052274;28;20276;-56
2023/05/29 02:13:13;;;;;;;8.48;4.90;;;;;;;14.05;100.00;64432.72;5052119;28;20206;-56
2023/05/29 02:15:39;;;;;;;7.80;4.18;;;;;;;14.02;100.00;64428.88;5052238;28;20196;-56
2023/05/29 02:18:05;;;;;;;8.07;5.38;;;;;;;13.82;100.00;64406.91;5052183;28;20185;-60
2023/05/29 02:20:30;;;;;;;5.80;4.70;;;;;;;13.66;100.00;64394.41;5052162;28;20268;-57
2023/05/29 02:22:55;;;;;;;6.82;4.57;;;;;;;13.66;100.00;64391.88;5052124;28;20197;-58
2023/05/29 02:25:21;;;;;;;8.73;4.78;;;;;;;13.69;100.00;64395.72;5052159;28;20530;-58
2023/05/29 02:27:46;;;;;;;11.13;4.85;;;;;;;13.77;100.00;64401.44;5051941;28;20181;-58
2023/05/29 02:30:12;;;;;;;6.80;5.18;;;;;;;13.83;100.00;64411.09;5052030;28;20660;-57
2023/05/29 02:32:37;;;;;;;8.50;5.43;;;;;;;13.92;100.00;64420.97;5052061;28;20660;-58
2023/05/29 02:35:03;;;;;;;7.65;5.65;;;;;;;14.01;100.00;64428.34;5051847;28;20201;-57
2023/05/29 02:37:29;;;;;;;5.95;5.00;;;;;;;14.02;100.00;64429.44;5051949;28;20238;-57
2023/05/29 02:39:54;;;;;;;6.03;5.00;;;;;;;14.08;100.00;64435.47;5051957;28;20219;-58
2023/05/29 02:42:20;;;;;;;5.93;4.97;;;;;;;14.16;100.00;64444.25;5051825;28;20185;-58
2023/05/29 02:44:45;;;;;;;8.65;4.80;;;;;;;14.19;100.00;64450.66;5051711;28;20292;-56
2023/05/29 02:47:11;;;;;;;6.38;4.80;;;;;;;14.21;100.00;64449.75;5051835;28;20292;-56
2023/05/29 02:49:36;;;;;;;6.72;4.90;;;;;;;14.20;100.00;64448.66;5051862;28;20241;-58
2023/05/29 02:52:01;;;;;;;8.90;5.43;;;;;;;14.33;100.00;64460.41;5051761;28;20194;-57
2023/05/29 02:54:27;;;;;;;7.15;4.90;;;;;;;14.29;100.00;64458.56;5051443;28;20274;-56
2023/05/29 02:56:52;;;;;;;8.70;4.90;;;;;;;14.38;100.00;64467.91;5051624;28;20186;-57
2023/05/29 02:59:18;;;;;;;7.35;5.25;;;;;;;15.03;100.00;64539.88;5051844;28;20217;-58
2023/05/29 03:01:43;;;;;;;5.70;5.03;;;;;;;15.23;100.00;64563.31;5051556;28;20177;-58
2023/05/29 03:04:12;;;;;;;11.63;7.45;;;;;;;15.08;100.00;64545.41;5051701;28;20595;-58
2023/05/29 03:06:37;;;;;;;11.90;7.63;;;;;;;15.05;100.00;64544.63;5051419;28;20197;-57
2023/05/29 03:09:04;;;;;;;8.98;5.05;;;;;;;15.08;100.00;64542.84;5033739;28;20296;-58
2023/05/29 03:11:31;;;;;;;10.40;5.10;;;;;;;14.85;100.00;64520.09;5051276;28;20197;-60
2023/05/29 03:13:56;;;;;;;7.45;5.47;;;;;;;14.73;100.00;64506.91;5051299;28;20205;-58
2023/05/29 03:16:21;;;;;;;6.75;5.30;;;;;;;14.66;100.00;64499.22;5051200;28;20201;-57
2023/05/29 03:18:47;;;;;;;6.07;5.28;;;;;;;14.60;100.00;64492.63;5051287;28;20283;-58
2023/05/29 03:21:13;;;;;;;8.18;5.80;;;;;;;14.63;100.00;64497.91;5049949;28;20193;-58
2023/05/29 03:23:38;;;;;;;7.28;5.13;;;;;;;14.54;100.00;64483.50;5051019;28;20646;-58
2023/05/29 03:26:05;;;;;;;7.68;5.68;;;;;;;14.49;100.00;64483.06;5051092;28;20629;-59
2023/05/29 03:28:31;;;;;;;12.25;6.30;;;;;;;14.55;100.00;64487.13;5051288;28;20279;-57
2023/05/29 03:30:56;;;;;;;8.40;5.97;;;;;;;14.66;100.00;64501.75;5051018;28;20189;-58
2023/05/29 03:33:21;;;;;;;9.57;6.28;;;;;;;14.65;100.00;64500.09;5033130;28;20292;-58
2023/05/29 03:35:48;;;;;;;7.55;5.68;;;;;;;14.86;100.00;64523.75;5050865;28;20663;-58
2023/05/29 03:38:13;;;;;;;10.20;6.05;;;;;;;14.93;100.00;64531.44;5050973;28;20726;-58
2023/05/29 03:40:38;;;;;;;8.45;5.97;;;;;;;14.93;100.00;64528.88;5050948;28;20181;-58
2023/05/29 03:43:04;;;;;;;12.82;6.22;;;;;;;14.91;100.00;64529.22;5051047;28;20193;-58
2023/05/29 03:45:29;;;;;;;7.65;5.97;;;;;;;14.94;100.00;64529.44;5050789;28;20284;-57
2023/05/29 03:47:55;;;;;;;7.13;5.85;;;;;;;15.01;100.00;64537.69;5050798;28;20564;-56
2023/05/29 03:50:20;;;;;;;12.45;6.93;;;;;;;14.87;100.00;64522.28;5049573;28;20262;-58
2023/05/29 03:52:45;;;;;;;11.32;7.28;;;;;;;14.79;100.00;64510.41;5050885;28;20193;-58
2023/05/29 03:55:12;;;;;;;9.57;6.80;;;;;;;14.75;100.00;64509.09;5050820;28;20622;-59
2023/05/29 03:57:45;;;;;;;9.63;6.15;;;;;;;14.89;100.00;64524.50;5050604;28;20193;-60
2023/05/29 04:00:11;;;;;;;9.07;6.53;;;;;;;14.85;100.00;64520.09;5050740;28;20204;-59
2023/05/29 04:02:41;;;;;;;11.18;6.75;;;;;;;14.96;100.00;64534.19;5050623;28;20208;-59
2023/05/29 04:05:08;;;;;;;8.43;5.97;;;;;;;15.03;100.00;64537.34;5050811;28;20217;-58
2023/05/29 04:07:36;;;;;;;9.07;5.88;;;;;;;15.13;100.00;64548.34;5052404;28;20697;-59
2023/05/29 04:10:01;;;;;;;13.50;6.15;;;;;;;15.19;100.00;64556.38;5036204;28;20653;-59
2023/05/29 04:12:27;;;;;;;9.23;5.95;;;;;;;15.11;100.00;64548.13;5053991;28;20190;-58
2023/05/29 04:14:52;;;;;;;7.63;5.40;;;;;;;15.26;100.00;64564.06;5053893;28;20221;-60
2023/05/29 04:17:18;;;;;;;9.68;5.70;;;;;;;15.22;100.00;64560.22;5054064;28;20189;-59
2023/05/29 04:19:43;;;;;;;11.88;5.97;;;;;;;15.29;100.00;64567.91;5054008;28;20217;-59
2023/05/29 04:22:09;;;;;;;8.38;6.45;;;;;;;15.25;100.00;64563.53;5053892;28;20177;-58
2023/05/29 04:24:35;;;;;;;11.50;6.47;;;;;;;15.19;100.00;64556.38;5053864;28;20303;-59
2023/05/29 04:27:01;;;;;;;9.30;6.07;;;;;;;15.24;100.00;64561.88;5054003;28;20186;-59
2023/05/29 04:29:28;;;;;;;8.00;5.93;;;;;;;15.20;100.00;64557.47;5054223;28;20243;-57
2023/05/29 04:31:55;;;;;;;8.55;6.00;;;;;;;15.28;100.00;64566.28;5053712;28;20201;-59
2023/05/29 04:34:21;;;;;;;9.20;5.50;;;;;;;15.49;100.00;64589.41;5053987;28;20209;-57
2023/05/29 04:36:48;;;;;;;6.85;5.40;;;;;;;15.78;100.00;64619.31;5053595;28;20596;-58
2023/05/29 04:39:13;;;;;;;8.07;5.15;;;;;;;16.14;100.00;64663.44;5053515;28;20218;-57
2023/05/29 04:41:40;;;;;;;9.00;4.80;;;;;;;16.81;100.00;64733.59;5053729;28;20255;-59
2023/05/29 04:44:07;;;;;;;7.85;4.82;;;;;;;17.11;100.00;64766.66;5052245;28;20291;-58
2023/05/29 04:46:34;;;;;;;6.32;4.82;;;;;;;17.34;100.00;64791.97;5053023;28;20182;-58
2023/05/29 04:49:02;;;;;;;6.82;5.55;;;;;;;17.32;100.00;64789.78;5052536;28;20210;-59
2023/05/29 04:51:29;;;;;;;10.13;4.80;;;;;;;18.23;100.00;64887.56;5053508;28;20272;-60
2023/05/29 04:53:56;;;;;;;8.63;5.15;;;;;;;18.77;100.00;64946.03;5053883;28;20220;-59
2023/05/29 04:56:22;;;;;;;7.57;5.10;;;;;;;19.01;100.00;64975.06;5053403;28;20178;-59
2023/05/29 04:58:48;;;;;;;7.78;4.68;;;;;;;18.94;100.00;64965.34;5053542;28;20744;-59
2023/05/29 05:01:14;;;;;;;12.05;6.25;;;;;;;18.93;100.00;64966.78;5053100;28;20217;-60
2023/05/29 05:03:40;;;;;;;6.63;4.78;;;;;;;18.99;100.00;64970.84;5053225;28;20303;-59
2023/05/29 05:06:07;;;;;;;13.52;6.25;;;;;;;19.17;100.00;64990.16;5053135;28;20288;-59
2023/05/29 05:08:33;;;;;;;12.15;5.32;;;;;;;19.46;100.00;65021.66;5035710;28;20270;-59
2023/05/29 05:11:00;;;;;;;11.27;5.65;;;;;;;19.63;99.04;65041.00;5053166;28;20190;-58
2023/05/29 05:13:25;;;;;;;14.93;8.75;;;;;;;19.86;100.00;65068.38;5053048;28;20338;-59
2023/05/29 05:15:51;;;;;;;13.40;6.88;;;;;;;18.98;97.80;64969.22;5052996;28;20186;-59
2023/05/29 05:18:16;;;;;;;8.98;6.15;;;;;;;18.13;100.00;64873.97;5050324;28;20266;-59
2023/05/29 05:20:42;;;;;;;17.75;9.50;;;;;;;17.91;100.00;64852.28;5053040;28;20224;-59
2023/05/29 05:23:07;;;;;;;14.88;7.18;;;;;;;17.88;100.00;64848.97;5053186;28;20246;-59
2023/05/29 05:25:34;;;;;;;12.23;7.22;;;;;;;17.96;100.00;64857.78;5052566;28;20209;-59
2023/05/29 05:28:00;;;;;;;10.95;7.35;;;;;;;17.88;100.00;64848.41;5052233;28;20216;-59
2023/05/29 05:30:25;;;;;;;12.35;6.75;;;;;;;17.97;100.00;64861.44;5052521;28;20620;-59
2023/05/29 05:32:51;;;;;;;11.07;6.10;;;;;;;17.56;100.00;64816.25;5051514;28;20178;-58
2023/05/29 05:35:16;;;;;;;11.32;5.60;;;;;;;17.36;100.00;64792.19;5040011;28;20194;-60
2023/05/29 05:37:42;;;;;;;12.50;6.10;;;;;;;17.27;100.00;64781.72;5030894;28;20198;-60
2023/05/29 05:40:08;;;;;;;10.85;6.35;;;;;;;17.34;100.00;64791.97;5032580;28;20667;-60
2023/05/29 05:42:35;;;;;;;10.77;7.20;;;;;;;17.17;100.00;64770.72;5032797;28;20197;-62
2023/05/29 05:45:01;;;;;;;10.68;6.43;;;;;;;17.14;100.00;64767.41;5032650;28;20218;-61
2023/05/29 05:47:27;;;;;;;20.65;6.93;;;;;;;17.28;100.00;64785.38;5032530;28;20190;-61
2023/05/29 05:49:54;;;;;;;11.02;6.10;;;;;;;17.09;100.00;64767.00;5032678;28;20217;-60
2023/05/29 05:52:19;;;;;;;11.88;5.90;;;;;;;17.13;100.00;64768.84;5032631;28;20217;-59
2023/05/29 05:54:44;;;;;;;7.63;5.05;;;;;;;17.17;100.00;64773.78;5032512;28;20615;-59
2023/05/29 05:57:10;;;;;;;11.70;5.38;;;;;;;17.13;100.00;64768.84;5032671;28;20574;-60
2023/05/29 05:59:36;;;;;;;4.05;3.47;;;;;;;16.99;100.00;64750.88;5032305;28;20214;-60
2023/05/29 06:02:03;;;;;;;5.63;3.88;;;;;;;16.95;100.00;64746.47;5032574;28;20253;-60
2023/05/29 06:04:29;;;;;;;5.63;3.90;;;;;;;16.94;100.00;64747.91;5032726;28;20233;-59
2023/05/29 06:06:55;;;;;;;4.28;3.35;;;;;;;17.05;100.00;64757.50;5032362;28;20198;-60
2023/05/29 06:09:20;;;;;;;7.60;3.75;;;;;;;17.11;100.00;64764.63;5032204;28;20607;-59
2023/05/29 06:11:46;;;;;;;5.47;3.53;;;;;;;17.17;100.00;64770.72;5032560;28;20214;-61
2023/05/29 06:14:11;;;;;;;6.10;3.63;;;;;;;17.17;100.00;64770.72;5032009;28;20221;-62
2023/05/29 06:16:37;;;;;;;6.93;3.92;;;;;;;17.34;100.00;64789.44;5032346;28;20190;-61
2023/05/29 06:19:04;;;;;;;6.03;3.35;;;;;;;17.38;100.00;64796.94;5032198;28;20210;-60
2023/05/29 06:21:29;;;;;;;5.85;3.60;;;;;;;17.44;100.00;64803.56;5032130;28;20197;-60
2023/05/29 06:23:55;;;;;;;6.20;3.70;;;;;;;17.40;100.00;64799.16;5032072;28;20580;-60
2023/05/29 06:26:24;;;;;;;9.07;4.18;;;;;;;17.33;100.00;64788.88;5032021;28;20225;-61
2023/05/29 06:28:50;;;;;;;5.65;3.95;;;;;;;17.51;100.00;64808.72;5032303;28;20214;-60
2023/05/29 06:31:15;;;;;;;5.20;3.92;;;;;;;17.45;100.00;64804.66;5031384;28;20193;-60
2023/05/29 06:33:41;;;;;;;4.13;2.70;;;;;;;17.61;100.00;64819.75;5032338;28;20232;-60
2023/05/29 06:36:07;;;;;;;4.68;2.40;;;;;;;17.50;100.00;64807.63;5031920;28;20194;-59
2023/05/29 06:38:32;;;;;;;3.50;2.60;;;;;;;17.47;100.00;64803.75;5032000;28;20242;-60
2023/05/29 06:40:58;;;;;;;2.28;1.98;;;;;;;17.57;100.00;64814.81;5031837;28;20597;-60
2023/05/29 06:43:23;;;;;;;2.63;2.30;;;;;;;17.63;100.00;64823.97;5031723;28;20704;-60
2023/05/29 06:45:56;;;;;;;4.95;2.30;;;;;;;17.53;100.00;64815.50;5014142;28;20214;-59
2023/05/29 06:48:21;;;;;;;4.25;2.45;;;;;;;17.56;100.00;64816.25;5031311;28;20218;-61
2023/05/29 06:50:48;;;;;;;7.70;3.85;;;;;;;17.75;100.00;64841.72;5030337;28;20186;-60
2023/05/29 06:53:13;;;;;;;5.88;2.75;;;;;;;17.56;100.00;64814.25;5031839;28;20216;-60
2023/05/29 06:55:40;;;;;;;3.25;2.40;;;;;;;17.64;100.00;64827.59;5031594;28;20218;-60
2023/05/29 06:58:06;;;;;;;7.07;3.20;;;;;;;17.82;100.00;64844.91;5031650;28;20256;-59
2023/05/29 07:00:31;;;;;;;4.43;2.47;;;;;;;17.84;100.00;64847.09;5014047;28;20537;-60
2023/05/29 07:02:57;;;;;;;3.67;2.20;;;;;;;18.04;100.00;64866.59;5031437;28;20194;-61
2023/05/29 07:05:22;;;;;;;5.60;3.10;;;;;;;17.86;100.00;64849.31;5031368;28;20209;-59
2023/05/29 07:07:48;;;;;;;2.83;1.80;;;;;;;18.07;100.00;64875.03;5031380;28;20201;-60
2023/05/29 07:10:13;;;;;;;4.15;2.05;;;;;;;17.86;100.00;64846.75;5030910;28;20182;-61
2023/05/29 07:12:39;;;;;;;2.40;2.00;;;;;;;18.00;99.77;64862.19;5030621;28;20197;-62
2023/05/29 07:15:05;;;;;;;4.38;2.25;;;;;;;18.19;100.00;64883.16;5031270;28;20217;-61
2023/05/29 07:17:30;;;;;;;2.97;2.70;;;;;;;18.25;100.00;64894.88;5031105;28;20190;-60
2023/05/29 07:19:56;;;;;;;4.05;2.78;;;;;;;18.04;100.00;64869.16;5031272;28;20285;-60
2023/05/29 07:22:21;;;;;;;4.80;2.25;;;;;;;18.33;98.56;64898.59;5031147;28;20216;-59
2023/05/29 07:24:46;;;;;;;3.67;2.05;;;;;;;18.49;97.84;64915.16;5031028;28;20595;-60
2023/05/29 07:27:12;;;;;;;5.32;2.30;;;;;;;18.33;98.64;64898.59;5031132;28;20178;-62
2023/05/29 07:29:37;;;;;;;3.80;2.30;;;;;;;18.21;98.38;64884.81;5030946;28;20649;-59
2023/05/29 07:32:03;;;;;;;5.47;2.10;;;;;;;18.14;98.04;64879.66;5031228;28;20664;-60
2023/05/29 07:34:28;;;;;;;3.50;2.50;;;;;;;18.07;97.97;64869.91;5031306;28;20661;-62
2023/05/29 07:37:02;;;;;;;3.55;2.75;;;;;;;18.34;97.14;64901.69;5030995;28;20178;-60
2023/05/29 07:39:28;;;;;;;4.75;3.30;;;;;;;18.28;99.66;64893.06;5030711;28;20214;-60
2023/05/29 07:41:54;;;;;;;5.03;2.85;;;;;;;18.43;97.83;64906.53;5028796;28;20204;-60
2023/05/29 07:44:19;;;;;;;3.28;2.53;;;;;;;18.22;97.60;64889.00;5013013;28;20205;-60
2023/05/29 07:46:45;;;;;;;2.63;2.42;;;;;;;18.35;97.28;64902.78;5030733;28;20206;-59
2023/05/29 07:49:11;;;;;;;4.68;2.67;;;;;;;18.58;98.11;64925.09;5030723;28;20710;-60
2023/05/29 07:51:36;;;;;;;6.40;4.65;;;;;;;18.64;98.51;64932.25;5030659;28;20190;-60
2023/05/29 07:54:02;;;;;;;2.65;2.40;;;;;;;18.58;94.52;64925.09;5031027;28;20260;-60
2023/05/29 07:56:28;;;;;;;6.38;2.95;;;;;;;19.47;100.00;65020.22;5030818;28;20200;-60
2023/05/29 07:58:54;;;;;;;2.58;2.38;;;;;;;19.73;91.42;65054.59;5031064;28;20214;-61
2023/05/29 08:01:21;;;;;;;7.07;3.38;;;;;;;19.38;94.83;65010.81;5030113;28;20186;-61
2023/05/29 08:03:47;;;;;;;5.63;2.75;;;;;;;18.98;94.59;64969.22;5030220;28;20310;-59
2023/05/29 08:06:13;;;;;;;3.42;2.45;;;;;;;18.97;93.63;64968.09;5029193;28;20206;-60
2023/05/29 08:08:38;;;;;;;3.60;2.42;;;;;;;18.98;95.77;64969.22;5030573;28;20233;-61
2023/05/29 08:11:05;;;;;;;5.22;2.78;;;;;;;19.23;92.53;64996.78;5029219;28;20182;-60
2023/05/29 08:13:30;;;;;;;4.55;2.22;;;;;;;19.21;95.00;64994.59;5030453;28;20214;-59
2023/05/29 08:15:56;;;;;;;5.43;2.50;;;;;;;19.22;92.68;64998.81;5030524;28;20194;-61
2023/05/29 08:18:25;;;;;;;4.00;2.47;;;;;;;19.23;96.04;64994.78;5030652;28;20320;-61
2023/05/29 08:20:51;;;;;;;3.50;2.42;;;;;;;19.43;93.77;65020.91;5030438;28;20201;-61
2023/05/29 08:23:16;;;;;;;5.85;3.47;;;;;;;19.18;93.31;64993.84;5030243;28;20684;-60
2023/05/29 08:25:42;;;;;;;5.43;3.20;;;;;;;19.16;93.66;64991.63;5030081;28;20252;-60
2023/05/29 08:28:07;;;;;;;6.53;2.90;;;;;;;19.30;91.56;65007.09;5030462;28;20218;-61
2023/05/29 08:30:33;;;;;;;3.25;2.72;;;;;;;19.44;93.37;65022.56;5030161;28;20183;-60
2023/05/29 08:32:58;;;;;;;4.43;2.58;;;;;;;19.72;89.64;65048.38;5030477;28;20210;-60
2023/05/29 08:35:24;;;;;;;3.15;2.60;;;;;;;19.62;90.88;65039.88;5030080;28;20205;-61
2023/05/29 08:37:49;;;;;;;4.38;3.28;;;;;;;19.24;92.81;64997.91;5030167;28;20201;-62
2023/05/29 08:40:14;;;;;;;14.27;5.25;;;;;;;19.12;93.81;64982.66;5030088;28;20193;-60
2023/05/29 08:42:47;;;;;;;6.95;4.70;;;;;;;19.43;96.31;65016.34;5030259;28;20198;-59
2023/05/29 08:45:15;;;;;;;3.90;2.45;;;;;;;19.68;90.37;65045.94;5028757;28;20199;-60
2023/05/29 08:47:43;;;;;;;3.25;2.85;;;;;;;19.98;87.81;65079.06;5030110;28;20198;-59
2023/05/29 08:50:10;;;;;;;5.88;2.80;;;;;;;20.07;87.48;65089.59;5029841;28;20202;-60
2023/05/29 08:52:36;;;;;;;4.18;2.35;;;;;;;19.95;89.11;65073.22;5012589;28;20191;-61
2023/05/29 08:55:02;;;;;;;3.08;2.20;;;;;;;19.78;86.91;65057.00;5032928;28;20221;-60
2023/05/29 08:57:29;;;;;;;3.30;2.25;;;;;;;19.59;86.66;65041.69;5031888;28;20186;-60
2023/05/29 08:59:55;;;;;;;3.25;2.60;;;;;;;19.62;85.99;65037.31;5033524;28;20202;-60
2023/05/29 09:02:21;;;;;;;4.47;3.35;;;;;;;19.77;84.34;65056.44;5033392;28;20205;-61
2023/05/29 09:04:52;;;;;;;4.78;2.97;;;;;;;20.00;84.68;65081.28;5033272;28;20214;-60
2023/05/29 09:07:19;;;;;;;3.08;2.70;;;;;;;20.14;85.17;65094.19;5033502;28;20186;-59
2023/05/29 09:09:48;;;;;;;3.00;2.67;;;;;;;20.32;84.50;65116.13;5033312;28;20234;-58
2023/05/29 09:12:16;;;;;;;3.47;2.45;;;;;;;20.39;79.22;65124.41;5033221;28;20664;-56
2023/05/29 09:14:44;;;;;;;2.75;2.40;;;;;;;20.46;76.74;65131.59;5033179;28;20268;-58
2023/05/29 09:17:11;;;;;;;4.50;2.20;;;;;;;21.08;76.55;65197.56;5033074;28;20221;-60
2023/05/29 09:19:40;;;;;;;2.17;1.95;;;;;;;21.37;70.40;65229.63;5032951;28;20214;-59
2023/05/29 09:22:10;;;;;;;2.63;2.30;;;;;;;21.62;73.76;65256.72;5033209;28;20182;-58
2023/05/29 09:24:38;;;;;;;3.17;2.40;;;;;;;21.43;68.89;65238.84;5033315;28;20312;-59
2023/05/29 09:27:04;;;;;;;5.05;2.83;;;;;;;21.21;72.08;65214.50;5031589;28;20194;-60
2023/05/29 09:29:37;;;;;;;3.47;2.70;;;;;;;20.92;72.84;65185.56;5032918;28;20591;-56
2023/05/29 09:32:07;;;;;;;4.75;3.47;;;;;;;20.89;74.35;65181.66;5015106;28;20194;-57
2023/05/29 09:34:32;;;;;;;3.03;2.45;;;;;;;21.01;74.29;65189.81;5032621;28;20233;-55
2023/05/29 09:37:09;;;;;;;2.70;2.45;;;;;;;21.45;86.25;65238.47;5032882;28;20654;-57
2023/05/29 09:39:45;;;;;;;4.18;2.83;;;;;;;21.70;89.61;65268.72;5032748;28;20220;-57
2023/05/29 09:42:11;;;;;;;4.53;3.13;;;;;;;21.99;86.49;65297.69;5032647;28;20190;-57
2023/05/29 09:44:36;;;;;;;4.00;2.45;;;;;;;21.91;72.26;65288.84;5032226;28;20218;-57
2023/05/29 09:47:02;;;;;;;3.33;2.83;;;;;;;21.70;75.37;65270.72;5031422;28;20265;-59
2023/05/29 09:49:28;;;;;;;7.70;2.65;;;;;;;21.46;70.14;65239.59;5032945;28;20723;-60
2023/05/29 09:51:55;;;;;;;7.78;2.67;;;;;;;21.20;74.31;65213.41;5032588;28;20743;-58
2023/05/29 09:54:20;;;;;;;3.67;2.38;;;;;;;20.86;73.35;65173.22;5032484;28;20293;-58
2023/05/29 09:56:47;;;;;;;3.60;2.80;;;;;;;21.23;85.48;65219.28;5032602;28;20266;-56
2023/05/29 09:59:14;;;;;;;5.82;2.78;;;;;;;21.51;73.38;65247.16;5030974;28;20206;-62
2023/05/29 10:01:42;;;;;;;5.43;2.40;;;;;;;22.06;73.82;65307.47;5032460;28;20195;-59
2023/05/29 10:04:10;;;;;;;2.65;2.30;;;;;;;21.87;69.59;65286.44;5031651;28;20211;-59
2023/05/29 10:06:37;;;;;;;3.70;2.92;;;;;;;21.89;69.85;65289.19;5031986;28;20193;-58
2023/05/29 10:09:05;;;;;;;3.75;2.45;;;;;;;22.11;70.82;65313.00;5032120;28;20214;-58
2023/05/29 10:11:32;;;;;;;6.65;4.18;;;;;;;22.17;69.14;65317.06;5032173;28;20182;-58
2023/05/29 10:14:02;;;;;;;3.13;2.83;;;;;;;22.36;69.46;65340.66;5032232;28;20207;-59
2023/05/29 10:16:29;;;;;;;3.95;3.08;;;;;;;22.18;67.22;65318.19;5031658;28;20185;-59
2023/05/29 10:18:56;;;;;;;4.18;2.92;;;;;;;21.98;67.14;65296.59;5031469;28;20237;-58
2023/05/29 10:21:24;;;;;;;3.28;2.97;;;;;;;21.79;67.20;65277.56;5031923;28;20178;-60
2023/05/29 10:23:51;;;;;;;5.25;3.28;;;;;;;21.41;67.87;65233.53;5031978;28;20210;-58
2023/05/29 10:26:26;;;;;;;11.88;4.05;;;;;;;21.28;72.45;65219.69;5030601;28;20206;-61
2023/05/29 10:29:26;;;;;;;7.03;3.60;;;;;;;21.34;72.50;65228.34;5031848;28;20228;-59
2023/05/29 10:31:54;;;;;;;8.35;3.22;;;;;;;21.46;71.74;65239.03;5031953;28;20194;-57
2023/05/29 10:34:39;;;;;;;4.20;2.83;;;;;;;21.57;74.04;65251.22;5032097;28;20229;-58
2023/05/29 10:37:29;;;;;;;3.97;2.72;;;;;;;21.32;72.95;65226.69;5032021;28;20202;-58
2023/05/29 10:40:05;;;;;;;10.77;8.23;;;;;;;21.16;72.25;65208.44;5031982;28;20214;-58
2023/05/29 10:42:52;;;;;;;2.85;2.65;;;;;;;21.15;70.73;65207.88;5031709;28;20182;-59
2023/05/29 10:45:35;;;;;;;3.10;2.75;;;;;;;21.13;71.95;65205.66;5031567;28;20833;-57
2023/05/29 10:48:07;;;;;;;3.72;2.92;;;;;;;21.10;72.51;65201.78;5014286;28;20217;-58
2023/05/29 10:50:43;;;;;;;4.70;3.45;;;;;;;20.71;75.04;65157.19;5031707;28;20201;-57
2023/05/29 10:53:17;;;;;;;4.05;3.10;;;;;;;20.80;71.85;65169.16;5032009;28;20213;-57
2023/05/29 10:55:45;;;;;;;4.30;3.25;;;;;;;20.73;74.65;65161.41;5031680;28;20695;-58
2023/05/29 10:58:30;;;;;;;6.18;3.92;;;;;;;20.70;74.78;65155.56;5031943;28;20198;-59
2023/05/29 11:00:57;;;;;;;8.10;3.33;;;;;;;21.20;74.98;65212.84;5031402;28;20194;-57
2023/05/29 11:03:32;;;;;;;3.63;3.33;;;;;;;22.13;74.18;65315.19;5030127;28;20210;-57
2023/05/29 11:06:02;;;;;;;4.85;3.40;;;;;;;22.71;64.32;65379.44;5031349;28;20710;-57
2023/05/29 11:08:52;;;;;;;3.38;2.67;;;;;;;23.11;63.43;65421.16;5031474;28;20214;-57
2023/05/29 11:11:40;;;;;;;3.25;2.75;;;;;;;23.57;64.54;65471.03;5031365;28;20236;-56
2023/05/29 11:14:07;;;;;;;4.55;2.67;;;;;;;23.42;60.82;65454.97;5031223;28;20295;-57
2023/05/29 11:16:32;;;;;;;5.32;2.95;;;;;;;23.69;59.39;65486.91;5031172;28;20200;-58
2023/05/29 11:19:03;;;;;;;4.55;2.83;;;;;;;23.05;62.05;65419.66;5031003;28;20301;-60
2023/05/29 11:21:33;;;;;;;8.23;2.72;;;;;;;22.88;64.45;65395.13;5031183;28;20683;-59
2023/05/29 11:24:04;;;;;;;2.97;2.67;;;;;;;22.31;62.74;65333.13;5031458;28;20304;-58
2023/05/29 11:26:31;;;;;;;3.40;2.78;;;;;;;22.03;63.92;65307.25;5031064;28;20214;-58
2023/05/29 11:29:14;;;;;;;4.80;2.78;;;;;;;22.01;63.58;65302.47;5031320;28;20291;-58